createdAt,value
2018-11-23T00:01:42.128Z,2.20
2018-11-23T00:04:10.353Z,2.20
2018-11-23T00:06:38.544Z,2.20
2018-11-23T00:09:07.163Z,2.20
2018-11-23T00:11:35.304Z,2.20
2018-11-23T00:14:03.730Z,2.10
2018-11-23T00:16:31.850Z,2.20
2018-11-23T00:19:00.012Z,2.10
2018-11-23T00:21:28.152Z,2.20
2018-11-23T00:23:56.316Z,2.20
2018-11-23T00:26:24.461Z,2.10
2018-11-23T00:28:52.642Z,2.10
2018-11-23T00:31:21.891Z,2.10
2018-11-23T00:33:50.014Z,2.10
2018-11-23T00:36:18.217Z,2.00
2018-11-23T00:38:46.318Z,2.00
2018-11-23T00:41:14.443Z,2.00
2018-11-23T00:43:42.588Z,2.00
2018-11-23T00:46:10.681Z,1.90
2018-11-23T00:48:38.939Z,1.90
2018-11-23T00:51:07.166Z,1.90
2018-11-23T00:53:35.317Z,1.90
2018-11-23T00:56:03.459Z,1.90
2018-11-23T00:58:31.562Z,1.90
2018-11-23T01:00:59.698Z,1.80
2018-11-23T01:03:27.905Z,1.80
2018-11-23T01:05:56.017Z,1.80
2018-11-23T01:08:24.214Z,1.80
2018-11-23T01:10:52.379Z,1.80
2018-11-23T01:13:20.505Z,1.70
2018-11-23T01:15:48.882Z,1.70
2018-11-23T01:18:17.746Z,1.70
2018-11-23T01:20:45.865Z,1.60
2018-11-23T01:23:13.980Z,1.60
2018-11-23T01:25:42.188Z,1.60
2018-11-23T01:28:10.300Z,1.60
2018-11-23T01:30:38.500Z,1.50
2018-11-23T01:33:06.639Z,1.50
2018-11-23T01:35:34.749Z,1.50
2018-11-23T01:38:02.925Z,1.50
2018-11-23T01:40:31.076Z,1.50
2018-11-23T01:42:59.248Z,1.40
2018-11-23T01:45:27.388Z,1.40
2018-11-23T01:47:55.595Z,1.40
2018-11-23T01:50:23.757Z,1.40
2018-11-23T01:52:51.903Z,1.40
2018-11-23T01:55:20.091Z,1.30
2018-11-23T01:57:48.180Z,1.30
2018-11-23T02:00:16.722Z,1.30
2018-11-23T02:02:44.930Z,1.20
2018-11-23T02:05:13.062Z,1.20
2018-11-23T02:07:41.593Z,1.10
2018-11-23T02:10:10.979Z,1.10
2018-11-23T02:12:39.138Z,1.10
2018-11-23T02:15:09.873Z,1.10
2018-11-23T02:17:38.001Z,1.10
2018-11-23T02:20:08.203Z,1.10
2018-11-23T02:22:36.378Z,1.10
2018-11-23T02:25:05.091Z,1.10
2018-11-23T02:27:33.512Z,1.10
2018-11-23T02:30:01.695Z,1.10
2018-11-23T02:32:30.167Z,1.10
2018-11-23T02:34:58.274Z,1.00
2018-11-23T02:37:26.418Z,1.00
2018-11-23T02:39:54.646Z,1.00
2018-11-23T02:42:22.797Z,1.00
2018-11-23T02:44:51.057Z,1.10
2018-11-23T02:47:19.170Z,1.10
2018-11-23T02:49:47.250Z,1.10
2018-11-23T02:52:15.374Z,1.10
2018-11-23T02:54:43.455Z,1.10
2018-11-23T02:57:11.539Z,1.10
2018-11-23T02:59:39.677Z,1.10
2018-11-23T03:02:07.838Z,1.10
2018-11-23T03:04:36.022Z,1.10
2018-11-23T03:07:04.542Z,1.10
2018-11-23T03:09:32.662Z,1.10
2018-11-23T03:12:00.854Z,1.10
2018-11-23T03:14:28.969Z,1.10
2018-11-23T03:16:57.135Z,1.10
2018-11-23T03:19:25.297Z,1.10
2018-11-23T03:21:53.451Z,1.10
2018-11-23T03:24:21.669Z,1.10
2018-11-23T03:26:49.834Z,1.10
2018-11-23T03:29:17.982Z,1.10
2018-11-23T03:31:46.095Z,1.10
2018-11-23T03:34:14.209Z,1.10
2018-11-23T03:36:42.539Z,1.10
2018-11-23T03:39:10.683Z,1.10
2018-11-23T03:41:38.952Z,1.10
2018-11-23T03:44:07.066Z,1.10
2018-11-23T03:46:35.201Z,1.10
2018-11-23T03:49:03.810Z,1.10
2018-11-23T03:51:31.951Z,1.10
2018-11-23T03:54:00.058Z,1.10
2018-11-23T03:56:28.295Z,1.10
2018-11-23T03:58:56.414Z,1.10
2018-11-23T04:01:24.521Z,1.10
2018-11-23T04:03:52.607Z,1.00
2018-11-23T04:06:20.785Z,1.10
2018-11-23T04:08:48.872Z,1.00
2018-11-23T04:11:17.113Z,1.00
2018-11-23T04:13:45.227Z,1.00
2018-11-23T04:16:13.382Z,1.00
2018-11-23T04:18:41.518Z,1.00
2018-11-23T04:21:09.649Z,1.00
2018-11-23T04:23:37.781Z,1.00
2018-11-23T04:26:06.136Z,1.00
2018-11-23T04:28:34.249Z,1.00
2018-11-23T04:31:02.378Z,1.00
2018-11-23T04:33:30.498Z,1.00
2018-11-23T04:35:58.650Z,1.00
2018-11-23T04:38:26.772Z,1.00
2018-11-23T04:40:54.891Z,1.10
2018-11-23T04:43:23.010Z,1.00
2018-11-23T04:45:51.210Z,1.00
2018-11-23T04:48:19.370Z,1.10
2018-11-23T04:50:47.572Z,1.00
2018-11-23T04:53:15.674Z,1.00
2018-11-23T04:55:43.826Z,1.00
2018-11-23T04:58:11.992Z,1.00
2018-11-23T05:00:40.142Z,1.00
2018-11-23T05:03:08.434Z,1.00
2018-11-23T05:05:36.585Z,1.10
2018-11-23T05:08:05.107Z,1.10
2018-11-23T05:10:33.480Z,1.20
2018-11-23T05:13:01.642Z,1.30
2018-11-23T05:15:29.755Z,1.30
2018-11-23T05:17:57.995Z,1.40
2018-11-23T05:20:26.143Z,1.40
2018-11-23T05:22:54.292Z,1.50
2018-11-23T05:25:22.427Z,1.40
2018-11-23T05:27:50.813Z,1.40
2018-11-23T05:30:18.896Z,1.40
2018-11-23T05:32:47.038Z,1.40
2018-11-23T05:35:15.242Z,1.40
2018-11-23T05:37:43.386Z,1.40
2018-11-23T05:40:12.766Z,1.50
2018-11-23T05:42:40.896Z,1.50
2018-11-23T05:45:10.561Z,1.50
2018-11-23T05:47:38.664Z,1.50
2018-11-23T05:50:10.533Z,1.50
2018-11-23T05:52:38.681Z,1.60
2018-11-23T05:55:07.198Z,1.60
2018-11-23T05:57:35.326Z,1.60
2018-11-23T06:00:05.002Z,1.60
2018-11-23T06:02:33.117Z,1.60
2018-11-23T06:05:01.260Z,1.60
2018-11-23T06:07:29.417Z,1.60
2018-11-23T06:09:57.572Z,1.60
2018-11-23T06:12:25.942Z,1.50
2018-11-23T06:14:54.101Z,1.50
2018-11-23T06:17:22.218Z,1.50
2018-11-23T06:19:50.340Z,1.50
2018-11-23T06:22:18.500Z,1.50
2018-11-23T06:24:46.657Z,1.40
2018-11-23T06:27:14.873Z,1.40
2018-11-23T06:29:42.968Z,1.40
2018-11-23T06:32:22.270Z,1.40
2018-11-23T06:34:50.383Z,1.40
2018-11-23T06:37:18.507Z,1.40
2018-11-23T06:39:46.675Z,1.30
2018-11-23T06:42:14.869Z,1.40
2018-11-23T06:44:43.028Z,1.40
2018-11-23T06:47:11.172Z,1.30
2018-11-23T06:49:39.285Z,1.40
2018-11-23T06:52:07.427Z,1.40
2018-11-23T06:54:35.546Z,1.40
2018-11-23T06:57:03.843Z,1.40
2018-11-23T06:59:31.999Z,1.40
2018-11-23T07:02:00.147Z,1.40
2018-11-23T07:04:28.264Z,1.40
2018-11-23T07:06:56.431Z,1.40
2018-11-23T07:09:24.560Z,1.40
2018-11-23T07:11:52.775Z,1.40
2018-11-23T07:14:20.923Z,1.40
2018-11-23T07:16:49.118Z,1.40
2018-11-23T07:19:17.275Z,1.50
2018-11-23T07:21:45.443Z,1.50
2018-11-23T07:24:13.614Z,1.50
2018-11-23T07:26:41.854Z,1.50
2018-11-23T07:29:09.994Z,1.40
2018-11-23T07:31:38.178Z,1.40
2018-11-23T07:34:06.301Z,1.40
2018-11-23T07:36:34.590Z,1.40
2018-11-23T07:39:03.718Z,1.40
2018-11-23T07:42:41.002Z,1.40
2018-11-23T07:45:09.152Z,1.40
2018-11-23T07:47:37.283Z,1.50
2018-11-23T07:50:07.366Z,1.50
2018-11-23T07:52:35.774Z,1.60
2018-11-23T07:55:05.050Z,1.60
2018-11-23T07:57:33.438Z,1.70
2018-11-23T08:00:01.606Z,1.80
2018-11-23T08:02:29.727Z,1.90
2018-11-23T08:04:57.942Z,1.90
2018-11-23T08:07:26.152Z,2.00
2018-11-23T08:09:54.239Z,2.10
2018-11-23T08:12:22.437Z,2.20
2018-11-23T08:14:50.584Z,2.30
2018-11-23T08:17:18.698Z,2.30
2018-11-23T08:19:47.429Z,2.40
2018-11-23T08:22:14.934Z,2.60
2018-11-23T08:24:43.045Z,2.70
2018-11-23T08:27:11.179Z,2.70
2018-11-23T08:29:39.298Z,2.80
2018-11-23T08:32:07.796Z,2.90
2018-11-23T08:34:35.909Z,3.00
2018-11-23T08:37:04.113Z,3.00
2018-11-23T08:39:32.326Z,3.10
2018-11-23T08:42:00.824Z,3.20
2018-11-23T08:44:28.973Z,3.30
2018-11-23T08:46:57.160Z,3.40
2018-11-23T08:49:25.331Z,3.50
2018-11-23T08:51:53.470Z,3.50
2018-11-23T08:54:21.593Z,3.60
2018-11-23T08:56:49.720Z,3.70
2018-11-23T08:59:17.829Z,3.70
2018-11-23T09:01:45.926Z,3.80
2018-11-23T09:04:14.049Z,3.80
2018-11-23T09:06:42.157Z,3.90
2018-11-23T09:09:10.488Z,4.00
2018-11-23T09:11:38.694Z,4.10
2018-11-23T09:14:07.081Z,4.20
2018-11-23T09:16:35.201Z,4.30
2018-11-23T09:19:03.423Z,4.30
2018-11-23T09:21:31.586Z,4.40
2018-11-23T09:23:59.752Z,4.40
2018-11-23T09:26:27.886Z,4.50
2018-11-23T09:28:56.066Z,4.60
2018-11-23T09:31:24.190Z,4.60
2018-11-23T09:33:52.302Z,4.60
2018-11-23T09:36:20.407Z,4.60
2018-11-23T09:38:48.677Z,4.60
2018-11-23T09:41:16.824Z,4.70
2018-11-23T09:43:45.036Z,4.70
2018-11-23T09:46:13.199Z,4.70
2018-11-23T09:48:41.564Z,4.80
2018-11-23T09:51:09.687Z,4.90
2018-11-23T09:53:37.830Z,4.90
2018-11-23T09:56:05.991Z,5.00
2018-11-23T09:58:34.231Z,5.10
2018-11-23T10:01:02.402Z,5.20
2018-11-23T10:03:30.621Z,5.20
2018-11-23T10:05:58.787Z,5.20
2018-11-23T10:08:26.880Z,5.20
2018-11-23T10:10:55.033Z,5.30
2018-11-23T10:13:23.375Z,5.30
2018-11-23T10:15:51.584Z,5.30
2018-11-23T10:18:19.683Z,5.40
2018-11-23T10:20:47.795Z,5.40
2018-11-23T10:23:15.902Z,5.50
2018-11-23T10:25:44.081Z,5.50
2018-11-23T10:28:12.177Z,5.60
2018-11-23T10:30:40.319Z,5.70
2018-11-23T10:33:08.458Z,5.70
2018-11-23T10:35:36.618Z,5.80
2018-11-23T10:38:04.857Z,5.90
2018-11-23T10:40:33.030Z,6.00
2018-11-23T10:43:01.124Z,6.00
2018-11-23T10:45:30.013Z,6.10
2018-11-23T10:47:58.235Z,6.10
2018-11-23T10:50:26.466Z,6.10
2018-11-23T10:52:54.617Z,6.10
2018-11-23T10:55:22.905Z,6.20
2018-11-23T10:57:51.219Z,6.30
2018-11-23T11:00:19.538Z,6.40
2018-11-23T11:02:48.120Z,6.40
2018-11-23T11:05:16.367Z,6.50
2018-11-23T11:07:44.604Z,6.50
2018-11-23T11:10:12.822Z,6.60
2018-11-23T11:12:41.042Z,6.60
2018-11-23T11:15:09.559Z,6.60
2018-11-23T11:17:37.709Z,6.70
2018-11-23T11:20:07.190Z,6.80
2018-11-23T11:22:35.398Z,6.80
2018-11-23T11:25:04.006Z,6.90
2018-11-23T11:27:32.311Z,6.90
2018-11-23T11:30:00.536Z,7.00
2018-11-23T11:32:28.790Z,7.10
2018-11-23T11:34:56.990Z,7.30
2018-11-23T11:37:25.063Z,7.30
2018-11-23T11:39:53.182Z,7.40
2018-11-23T11:42:21.299Z,7.50
2018-11-23T11:44:49.477Z,7.50
2018-11-23T11:47:17.709Z,7.60
2018-11-23T11:49:45.938Z,7.70
2018-11-23T11:52:14.037Z,7.70
2018-11-23T11:54:42.260Z,7.70
2018-11-23T11:57:10.491Z,7.80
2018-11-23T11:59:38.709Z,7.90
2018-11-23T12:02:10.118Z,7.90
2018-11-23T12:04:34.991Z,8.00
2018-11-23T12:07:03.329Z,8.10
2018-11-23T12:09:31.432Z,8.20
2018-11-23T12:11:59.716Z,8.20
2018-11-23T12:14:27.875Z,8.30
2018-11-23T12:16:56.065Z,8.40
2018-11-23T12:19:24.217Z,8.50
2018-11-23T12:21:52.342Z,8.60
2018-11-23T12:24:20.478Z,8.60
2018-11-23T12:26:48.717Z,8.70
2018-11-23T12:29:17.027Z,8.70
2018-11-23T12:31:45.233Z,8.80
2018-11-23T12:34:13.422Z,8.80
2018-11-23T12:36:41.956Z,8.90
2018-11-23T12:39:10.053Z,8.90
2018-11-23T12:41:45.094Z,9.00
2018-11-23T12:44:27.216Z,9.10
2018-11-23T12:46:55.673Z,9.10
2018-11-23T12:49:24.112Z,9.10
2018-11-23T12:51:52.317Z,9.20
2018-11-23T12:54:20.499Z,9.30
2018-11-23T12:56:48.696Z,9.30
2018-11-23T12:59:16.966Z,9.30
2018-11-23T13:01:45.100Z,9.30
2018-11-23T13:04:13.243Z,9.30
2018-11-23T13:06:41.404Z,9.30
2018-11-23T13:09:15.852Z,9.40
2018-11-23T13:11:44.004Z,9.40
2018-11-23T13:14:12.373Z,9.40
2018-11-23T13:16:40.654Z,9.40
2018-11-23T13:19:09.127Z,9.40
2018-11-23T13:21:37.285Z,9.50
2018-11-23T13:24:05.521Z,9.50
2018-11-23T13:26:33.676Z,9.60
2018-11-23T13:29:15.407Z,9.60
2018-11-23T13:31:31.016Z,9.60
2018-11-23T13:33:59.287Z,9.60
2018-11-23T13:36:27.445Z,9.70
2018-11-23T13:38:59.759Z,9.70
2018-11-23T13:41:27.946Z,9.80
2018-11-23T13:43:56.058Z,9.80
2018-11-23T13:46:24.189Z,9.80
2018-11-23T13:48:52.301Z,9.90
2018-11-23T13:51:20.441Z,9.90
2018-11-23T13:53:48.559Z,9.90
2018-11-23T13:56:16.727Z,9.90
2018-11-23T13:58:44.871Z,10.00
2018-11-23T14:01:13.025Z,10.00
2018-11-23T14:03:41.878Z,10.00
2018-11-23T14:06:09.997Z,10.00
2018-11-23T14:08:38.152Z,10.00
2018-11-23T14:11:06.348Z,10.00
2018-11-23T14:13:34.504Z,10.10
2018-11-23T14:16:02.650Z,10.10
2018-11-23T14:18:30.769Z,10.10
2018-11-23T14:20:59.053Z,10.10
2018-11-23T14:23:27.155Z,10.10
2018-11-23T14:25:55.293Z,10.10
2018-11-23T14:28:23.442Z,10.10
2018-11-23T14:30:51.811Z,10.10
2018-11-23T14:33:19.925Z,10.10
2018-11-23T14:35:48.011Z,10.20
2018-11-23T14:38:16.164Z,10.20
2018-11-23T14:40:44.355Z,10.10
2018-11-23T14:43:12.515Z,10.10
2018-11-23T14:45:40.658Z,10.10
2018-11-23T14:48:09.134Z,10.10
2018-11-23T14:50:37.399Z,10.10
2018-11-23T14:53:06.256Z,10.10
2018-11-23T14:55:34.453Z,10.10
2018-11-23T14:58:02.624Z,10.10
2018-11-23T15:00:30.730Z,10.00
2018-11-23T15:02:58.867Z,9.90
2018-11-23T15:05:26.954Z,9.90
2018-11-23T15:07:55.173Z,9.80
2018-11-23T15:10:23.876Z,9.80
2018-11-23T15:12:52.219Z,9.70
2018-11-23T15:15:20.348Z,9.70
2018-11-23T15:17:48.506Z,9.70
2018-11-23T15:20:18.518Z,9.60
2018-11-23T15:22:48.021Z,9.60
2018-11-23T15:25:16.175Z,9.60
2018-11-23T15:27:44.531Z,9.50
2018-11-23T15:30:14.258Z,9.50
2018-11-23T15:32:42.417Z,9.40
2018-11-23T15:35:10.633Z,9.30
2018-11-23T15:37:38.906Z,9.30
2018-11-23T15:40:13.174Z,9.20
2018-11-23T15:42:41.695Z,9.20
2018-11-23T15:45:10.675Z,9.10
2018-11-23T15:47:38.779Z,9.10
2018-11-23T15:50:08.882Z,9.00
2018-11-23T15:52:37.008Z,8.90
2018-11-23T15:55:09.484Z,8.90
2018-11-23T15:57:37.617Z,8.80
2018-11-23T16:00:09.448Z,8.80
2018-11-23T16:02:37.566Z,8.70
2018-11-23T16:05:06.472Z,8.60
2018-11-23T16:07:34.512Z,8.50
2018-11-23T16:10:02.721Z,8.50
2018-11-23T16:12:31.004Z,8.40
2018-11-23T16:14:59.382Z,8.30
2018-11-23T16:17:27.768Z,8.30
2018-11-23T16:19:55.865Z,8.20
2018-11-23T16:22:24.129Z,8.20
2018-11-23T16:24:52.462Z,8.10
2018-11-23T16:27:20.628Z,8.00
2018-11-23T16:29:50.535Z,8.00
2018-11-23T16:32:18.662Z,7.90
2018-11-23T16:34:46.779Z,7.90
2018-11-23T16:37:14.961Z,7.80
2018-11-23T16:39:43.082Z,7.80
2018-11-23T16:42:11.267Z,7.70
2018-11-23T16:44:39.377Z,7.60
2018-11-23T16:47:07.667Z,7.60
2018-11-23T16:49:35.818Z,7.50
2018-11-23T16:52:04.837Z,7.50
2018-11-23T16:54:32.934Z,7.40
2018-11-23T16:57:01.090Z,7.30
2018-11-23T16:59:29.290Z,7.30
2018-11-23T17:01:57.483Z,7.20
2018-11-23T17:04:25.614Z,7.20
2018-11-23T17:06:53.781Z,7.20
2018-11-23T17:09:21.926Z,7.10
2018-11-23T17:11:50.112Z,7.10
2018-11-23T17:14:18.277Z,7.00
2018-11-23T17:16:46.428Z,7.00
2018-11-23T17:19:14.625Z,6.90
2018-11-23T17:21:42.879Z,6.80
2018-11-23T17:24:11.295Z,6.80
2018-11-23T17:26:39.443Z,6.80
2018-11-23T17:29:07.624Z,6.70
2018-11-23T17:31:38.099Z,6.70
2018-11-23T17:34:06.247Z,6.60
2018-11-23T17:36:34.390Z,6.60
2018-11-23T17:39:02.617Z,6.50
2018-11-23T17:41:30.735Z,6.50
2018-11-23T17:43:58.941Z,6.50
2018-11-23T17:46:27.203Z,6.50
2018-11-23T17:48:55.579Z,6.40
2018-11-23T17:51:23.745Z,6.40
2018-11-23T17:53:51.868Z,6.30
2018-11-23T17:56:19.971Z,6.30
2018-11-23T17:58:48.192Z,6.30
2018-11-23T18:01:16.287Z,6.20
2018-11-23T18:03:44.378Z,6.20
2018-11-23T18:06:12.677Z,6.20
2018-11-23T18:08:41.201Z,6.10
2018-11-23T18:11:09.802Z,6.10
2018-11-23T18:13:38.603Z,6.10
2018-11-23T18:16:06.771Z,6.00
2018-11-23T18:18:34.976Z,6.00
2018-11-23T18:21:03.137Z,6.00
2018-11-23T18:23:31.260Z,5.90
2018-11-23T18:25:59.685Z,5.90
2018-11-23T18:28:29.024Z,5.80
2018-11-23T18:30:57.251Z,5.80
2018-11-23T18:33:26.451Z,5.70
2018-11-23T18:35:55.522Z,5.70
2018-11-23T18:38:23.684Z,5.60
2018-11-23T18:40:52.031Z,5.60
2018-11-23T18:43:20.735Z,5.60
2018-11-23T18:45:49.670Z,5.50
2018-11-23T18:48:17.878Z,5.50
2018-11-23T18:50:46.522Z,5.50
2018-11-23T18:53:14.741Z,5.40
2018-11-23T18:55:42.969Z,5.40
2018-11-23T18:58:11.126Z,5.40
2018-11-23T19:00:39.374Z,5.40
2018-11-23T19:03:07.519Z,5.40
2018-11-23T19:05:35.865Z,5.30
2018-11-23T19:08:04.096Z,5.30
2018-11-23T19:10:32.216Z,5.30
2018-11-23T19:13:00.492Z,5.30
2018-11-23T19:15:28.590Z,5.20
2018-11-23T19:17:56.779Z,5.20
2018-11-23T19:20:24.929Z,5.20
2018-11-23T19:22:54.016Z,5.20
2018-11-23T19:25:22.606Z,5.10
2018-11-23T19:27:50.732Z,5.10
2018-11-23T19:30:23.493Z,5.10
2018-11-23T19:32:48.583Z,5.00
2018-11-23T19:35:16.829Z,5.00
2018-11-23T19:37:45.203Z,5.00
2018-11-23T19:40:14.269Z,5.00
2018-11-23T19:42:43.200Z,4.90
2018-11-23T19:45:15.768Z,4.90
2018-11-23T19:47:44.123Z,4.90
2018-11-23T19:50:14.583Z,4.90
2018-11-23T19:52:42.681Z,4.80
2018-11-23T19:55:11.999Z,4.80
2018-11-23T19:57:40.275Z,4.80
2018-11-23T20:00:16.561Z,4.70
2018-11-23T20:02:44.839Z,4.70
2018-11-23T20:05:13.077Z,4.70
2018-11-23T20:07:42.602Z,4.70
2018-11-23T20:10:15.208Z,4.60
2018-11-23T20:12:44.092Z,4.60
2018-11-23T20:15:15.503Z,4.60
2018-11-23T20:17:43.784Z,4.70
2018-11-23T20:20:13.846Z,4.60
2018-11-23T20:22:42.445Z,4.60
2018-11-23T20:25:13.831Z,4.60
2018-11-23T20:27:42.098Z,4.60
2018-11-23T20:30:12.762Z,4.60
2018-11-23T20:32:41.375Z,4.60
2018-11-23T20:35:11.520Z,4.60
2018-11-23T20:37:39.695Z,4.60
2018-11-23T20:40:12.408Z,4.60
2018-11-23T20:42:40.923Z,4.50
2018-11-23T20:45:10.363Z,4.50
2018-11-23T20:47:38.592Z,4.40
2018-11-23T20:50:15.637Z,4.40
2018-11-23T20:52:43.845Z,4.40
2018-11-23T20:55:26.896Z,4.40
2018-11-23T20:57:55.071Z,4.30
2018-11-23T21:00:23.210Z,4.30
2018-11-23T21:02:51.943Z,4.30
2018-11-23T21:05:20.967Z,4.30
2018-11-23T21:07:49.552Z,4.30
2018-11-23T21:10:22.932Z,4.20
2018-11-23T21:12:51.355Z,4.20
2018-11-23T21:15:21.856Z,4.20
2018-11-23T21:17:50.000Z,4.20
2018-11-23T21:20:18.196Z,4.10
2018-11-23T21:22:46.305Z,4.10
2018-11-23T21:25:14.473Z,4.10
2018-11-23T21:27:42.742Z,4.10
2018-11-23T21:30:14.989Z,4.10
2018-11-23T21:32:43.319Z,4.10
2018-11-23T21:35:11.959Z,4.10
2018-11-23T21:37:40.118Z,4.10
2018-11-23T21:40:09.531Z,4.10
2018-11-23T21:42:37.707Z,4.10
2018-11-23T21:45:08.127Z,4.10
2018-11-23T21:47:36.665Z,4.10
2018-11-23T21:50:09.608Z,4.00
2018-11-23T21:52:37.707Z,4.00
2018-11-23T21:55:08.070Z,4.00
2018-11-23T21:57:36.186Z,4.00
2018-11-23T22:00:05.486Z,4.00
2018-11-23T22:02:33.655Z,3.90
2018-11-23T22:05:01.893Z,3.90
2018-11-23T22:07:30.019Z,3.90
2018-11-23T22:09:58.173Z,3.80
2018-11-23T22:12:37.021Z,3.80
2018-11-23T22:15:06.379Z,3.80
2018-11-23T22:17:34.720Z,3.70
2018-11-23T22:20:03.254Z,3.70
2018-11-23T22:22:31.540Z,3.70
2018-11-23T22:24:59.826Z,3.60
2018-11-23T22:27:27.999Z,3.60
2018-11-23T22:29:56.178Z,3.60
2018-11-23T22:32:24.302Z,3.60
2018-11-23T22:34:52.401Z,3.60
2018-11-23T22:37:20.644Z,3.60
2018-11-23T22:39:48.776Z,3.50
2018-11-23T22:42:16.927Z,3.50
2018-11-23T22:44:45.121Z,3.60
2018-11-23T22:47:13.277Z,3.60
2018-11-23T22:49:41.611Z,3.60
2018-11-23T22:52:09.725Z,3.70
2018-11-23T22:54:37.896Z,3.70
2018-11-23T22:57:11.613Z,3.60
2018-11-23T22:59:34.306Z,3.60
2018-11-23T23:02:02.504Z,3.60
2018-11-23T23:04:30.645Z,3.60
2018-11-23T23:06:58.822Z,3.60
2018-11-23T23:09:26.948Z,3.60
2018-11-23T23:11:55.193Z,3.60
2018-11-23T23:14:23.304Z,3.60
2018-11-23T23:16:51.430Z,3.60
2018-11-23T23:19:19.607Z,3.60
2018-11-23T23:21:47.734Z,3.50
2018-11-23T23:24:16.725Z,3.50
2018-11-23T23:26:44.970Z,3.50
2018-11-23T23:29:13.213Z,3.50
2018-11-23T23:31:41.496Z,3.40
2018-11-23T23:34:09.663Z,3.40
2018-11-23T23:36:37.930Z,3.40
2018-11-23T23:39:07.643Z,3.30
2018-11-23T23:41:35.930Z,3.30
2018-11-23T23:44:12.732Z,3.30
2018-11-23T23:46:41.061Z,3.30
2018-11-23T23:49:09.615Z,3.20
2018-11-23T23:51:37.743Z,3.20
2018-11-23T23:54:05.897Z,3.10
2018-11-23T23:56:34.023Z,3.00
2018-11-23T23:59:02.236Z,3.00
